Time;durP1;ratioP1;P1;durP2;ratioP2;P2;SDS_P1;SDS_P2;PMS_P1;PMS_P2;Temp;Humidity;BMP_temperature;BMP_pressure;BME280_temperature;BME280_humidity;BME280_pressure;Samples;Min_cycle;Max_cycle;Signal;HPM_P1;HPM_P2
2022/02/21 00:01:21;;;;;;;;;;;;;;;1.69;84.93;98689.06;1709207;84;20458;-70
2022/02/21 00:03:51;;;;;;;;;;;;;;;1.65;85.24;98690.70;1708804;84;20091;-70
2022/02/21 00:06:21;;;;;;;;;;;;;;;1.61;85.67;98687.75;1703375;84;20095;-70
2022/02/21 00:08:49;;;;;;;;;;;;;;;1.58;85.95;98682.08;1708479;84;20087;-70
2022/02/21 00:11:19;;;;;;;;;;;;;;;1.54;86.23;98684.53;1709132;84;20123;-69
2022/02/21 00:13:45;;;;;;;;;;;;;;;1.49;86.27;98692.66;1709021;84;20090;-69
2022/02/21 00:16:13;;;;;;;;;;;;;;;1.44;86.86;98685.92;1703696;84;20433;-69
2022/02/21 00:18:48;;;;;;;;;;;;;;;1.41;87.33;98689.73;1708173;84;21268;-69
2022/02/21 00:21:15;;;;;;;;;;;;;;;1.39;88.06;98685.13;1708551;84;20098;-70
2022/02/21 00:23:47;;;;;;;;;;;;;;;1.37;88.24;98688.66;1704676;84;20098;-70
2022/02/21 00:26:11;;;;;;;;;;;;;;;1.33;88.42;98685.70;1708309;84;20103;-70
2022/02/21 00:28:40;;;;;;;;;;;;;;;1.30;89.21;98684.36;1704753;84;20098;-71
2022/02/21 00:31:09;;;;;;;;;;;;;;;1.28;89.59;98690.58;1696718;84;21173;-71
2022/02/21 00:33:38;;;;;;;;;;;;;;;1.27;89.61;98688.15;1695718;84;20103;-72
2022/02/21 00:36:09;;;;;;;;;;;;;;;1.25;89.43;98688.97;1695020;84;20119;-69
2022/02/21 00:38:36;;;;;;;;;;;;;;;1.20;89.46;98693.85;1696416;84;20123;-70
2022/02/21 00:41:04;;;;;;;;;;;;;;;1.16;89.86;98678.45;1696391;83;20103;-70
2022/02/21 00:43:37;;;;;;;;;;;;;;;1.13;90.24;98688.50;1694784;84;20127;-70
2022/02/21 00:46:11;;;;;;;;;;;;;;;1.10;90.79;98686.34;1672269;84;20132;-70
2022/02/21 00:48:37;;;;;;;;;;;;;;;1.09;91.14;98695.53;1695775;84;20075;-70
2022/02/21 00:51:03;;;;;;;;;;;;;;;1.06;91.21;98694.19;1696109;84;20099;-71
2022/02/21 00:53:39;;;;;;;;;;;;;;;1.04;91.83;98690.14;1671960;84;20142;-69
2022/02/21 00:56:06;;;;;;;;;;;;;;;1.02;91.83;98682.84;1695966;84;23350;-70
2022/02/21 00:58:35;;;;;;;;;;;;;;;0.99;92.12;98685.56;1696213;84;20099;-71
2022/02/21 01:01:06;;;;;;;;;;;;;;;0.96;92.34;98686.10;1696456;84;20119;-68
2022/02/21 01:03:43;;;;;;;;;;;;;;;0.92;92.46;98676.92;1696448;84;20482;-68
2022/02/21 01:06:08;;;;;;;;;;;;;;;0.87;92.58;98678.28;1695765;84;20087;-69
2022/02/21 01:08:39;;;;;;;;;;;;;;;0.84;92.91;98677.48;1695066;84;20506;-69
2022/02/21 01:11:10;;;;;;;;;;;;;;;0.79;93.17;98675.59;1696471;84;20075;-69
2022/02/21 01:13:37;;;;;;;;;;;;;;;0.78;93.61;98671.27;1695444;84;20422;-69
2022/02/21 01:16:10;;;;;;;;;;;;;;;0.75;93.97;98671.82;1694869;84;20127;-68
2022/02/21 01:18:41;;;;;;;;;;;;;;;0.74;94.03;98666.69;1696369;84;20107;-69
2022/02/21 01:21:12;;;;;;;;;;;;;;;0.71;94.39;98665.88;1696394;84;20637;-69
2022/02/21 01:23:40;;;;;;;;;;;;;;;0.70;94.82;98664.27;1696396;84;20418;-69
2022/02/21 01:26:13;;;;;;;;;;;;;;;0.70;94.82;98657.51;1696566;84;20087;-69
2022/02/21 01:28:50;;;;;;;;;;;;;;;0.68;94.91;98657.78;1688294;84;21902;-69
2022/02/21 01:31:17;;;;;;;;;;;;;;;0.66;94.90;98658.05;1686083;84;20110;-70
2022/02/21 01:33:49;;;;;;;;;;;;;;;0.64;95.08;98656.70;1707259;84;21095;-70
2022/02/21 01:36:14;;;;;;;;;;;;;;;0.62;95.23;98647.53;1712508;84;20078;-69
2022/02/21 01:38:43;;;;;;;;;;;;;;;0.60;95.30;98653.73;1712672;84;20086;-69
2022/02/21 01:41:14;;;;;;;;;;;;;;;0.57;95.61;98655.67;1712755;84;20123;-69
2022/02/21 01:43:45;;;;;;;;;;;;;;;0.56;95.87;98651.34;1731876;83;20425;-69
2022/02/21 01:46:12;;;;;;;;;;;;;;;0.54;95.99;98646.76;1712066;84;20122;-69
2022/02/21 01:48:50;;;;;;;;;;;;;;;0.54;96.12;98645.95;1682567;85;20333;-69
2022/02/21 01:51:14;;;;;;;;;;;;;;;0.52;96.37;98644.87;1732006;82;20083;-69
2022/02/21 01:53:40;;;;;;;;;;;;;;;0.50;96.41;98645.68;1702101;84;20126;-69
2022/02/21 01:56:09;;;;;;;;;;;;;;;0.48;96.63;98639.74;1732559;83;20119;-69
2022/02/21 01:58:35;;;;;;;;;;;;;;;0.46;96.75;98645.14;1702126;84;21893;-69
2022/02/21 02:01:04;;;;;;;;;;;;;;;0.43;96.78;98639.75;1703391;83;20098;-69
2022/02/21 02:03:41;;;;;;;;;;;;;;;0.41;96.96;98624.90;1676871;84;20087;-69
2022/02/21 02:06:08;;;;;;;;;;;;;;;0.38;97.45;98635.70;1732384;83;20075;-69
2022/02/21 02:08:34;;;;;;;;;;;;;;;0.37;97.59;98626.52;1730561;83;20098;-70
2022/02/21 02:11:05;;;;;;;;;;;;;;;0.35;97.82;98626.80;1700481;84;20107;-69
2022/02/21 02:13:33;;;;;;;;;;;;;;;0.35;97.96;98618.69;1732766;83;20122;-68
2022/02/21 02:16:03;;;;;;;;;;;;;;;0.33;98.09;98620.31;1701275;84;20119;-69
2022/02/21 02:18:33;;;;;;;;;;;;;;;0.33;98.57;98625.71;1732475;83;20142;-69
2022/02/21 02:21:04;;;;;;;;;;;;;;;0.36;99.20;98627.06;1731100;83;20142;-69
2022/02/21 02:23:39;;;;;;;;;;;;;;;0.39;99.23;98631.92;1701814;84;21160;-69
2022/02/21 02:26:05;;;;;;;;;;;;;;;0.41;99.33;98614.91;1731819;83;20122;-70
2022/02/21 02:28:38;;;;;;;;;;;;;;;0.44;99.53;98617.61;1701719;84;20175;-70
2022/02/21 02:31:06;;;;;;;;;;;;;;;0.46;99.41;98612.74;1738672;82;20131;-70
2022/02/21 02:33:37;;;;;;;;;;;;;;;0.47;99.36;98606.26;1738774;82;20099;-67
2022/02/21 02:36:02;;;;;;;;;;;;;;;0.46;99.66;98597.34;1740427;82;21181;-66
2022/02/21 02:38:36;;;;;;;;;;;;;;;0.48;99.91;98593.03;1735864;82;20200;-67
2022/02/21 02:41:01;;;;;;;;;;;;;;;0.49;99.76;98591.41;1740892;81;20083;-68
2022/02/21 02:43:31;;;;;;;;;;;;;;;0.49;99.62;98590.59;1741688;82;20430;-69
2022/02/21 02:46:03;;;;;;;;;;;;;;;0.47;99.58;98582.77;1741922;82;20135;-69
2022/02/21 02:48:29;;;;;;;;;;;;;;;0.46;99.64;98584.39;1741990;82;21173;-68
2022/02/21 02:51:05;;;;;;;;;;;;;;;0.45;99.68;98580.07;1741861;82;20111;-68
2022/02/21 02:53:32;;;;;;;;;;;;;;;0.43;99.61;98585.74;1714659;82;20138;-68
2022/02/21 02:56:05;;;;;;;;;;;;;;;0.38;99.41;98581.70;1737694;82;20482;-68
2022/02/21 02:58:29;;;;;;;;;;;;;;;0.32;99.47;98580.91;1740925;82;20116;-69
2022/02/21 03:01:05;;;;;;;;;;;;;;;0.27;99.73;98586.84;1742155;82;21116;-68
2022/02/21 03:03:32;;;;;;;;;;;;;;;0.22;100.00;98590.90;1740937;82;20088;-68
2022/02/21 03:05:58;;;;;;;;;;;;;;;0.18;100.00;98586.58;1740875;82;20170;-68
2022/02/21 03:08:30;;;;;;;;;;;;;;;0.12;100.00;98590.36;1668370;84;20097;-68
2022/02/21 03:10:56;;;;;;;;;;;;;;;0.08;100.00;98587.12;1713826;83;20409;-68
2022/02/21 03:13:27;;;;;;;;;;;;;;;0.02;100.00;98582.81;1716693;83;21181;-68
2022/02/21 03:15:55;;;;;;;;;;;;;;;-0.05;100.00;98581.76;1690085;83;20094;-68
2022/02/21 03:18:27;;;;;;;;;;;;;;;-0.09;100.00;98600.38;1685407;83;20485;-68
2022/02/21 03:21:03;;;;;;;;;;;;;;;-0.14;100.00;98604.95;1677170;84;20146;-68
2022/02/21 03:23:31;;;;;;;;;;;;;;;-0.18;100.00;98598.48;1703273;84;20158;-68
2022/02/21 03:26:00;;;;;;;;;;;;;;;-0.24;100.00;98590.92;1703631;84;21154;-68
2022/02/21 03:28:26;;;;;;;;;;;;;;;-0.27;100.00;98584.72;1703737;84;20441;-68
2022/02/21 03:31:02;;;;;;;;;;;;;;;-0.29;100.00;98583.36;1702239;84;20094;-68
2022/02/21 03:33:29;;;;;;;;;;;;;;;-0.30;100.00;98578.51;1654823;86;20426;-68
2022/02/21 03:36:03;;;;;;;;;;;;;;;-0.31;100.00;98576.89;1667499;84;20214;-68
2022/02/21 03:38:39;;;;;;;;;;;;;;;-0.31;100.00;98560.70;1674605;84;20123;-68
2022/02/21 03:41:04;;;;;;;;;;;;;;;-0.29;100.00;98565.30;1698681;83;20103;-68
2022/02/21 03:43:31;;;;;;;;;;;;;;;-0.28;100.00;98561.52;1701187;84;20111;-69
2022/02/21 03:46:01;;;;;;;;;;;;;;;-0.27;100.00;98557.74;1701483;84;20102;-70
2022/02/21 03:48:39;;;;;;;;;;;;;;;-0.26;100.00;98546.41;1700608;84;20115;-70
2022/02/21 03:50:53;;;;;;;;;;;;;;;-0.25;100.00;98548.03;1696095;84;21849;-68
2022/02/21 03:53:24;;;;;;;;;;;;;;;-0.23;100.00;98553.97;1701317;84;20429;-68
2022/02/21 03:55:55;;;;;;;;;;;;;;;-0.18;100.00;98544.53;1700747;84;20091;-69
2022/02/21 03:58:25;;;;;;;;;;;;;;;-0.15;100.00;98542.10;1700843;84;20536;-68
2022/02/21 04:00:55;;;;;;;;;;;;;;;-0.09;100.00;98532.93;1670321;84;20159;-68
2022/02/21 04:03:26;;;;;;;;;;;;;;;-0.04;100.00;98530.77;1701706;84;21259;-69
2022/02/21 04:05:57;;;;;;;;;;;;;;;0.02;100.00;98515.35;1661167;85;20103;-68
2022/02/21 04:08:26;;;;;;;;;;;;;;;0.08;100.00;98523.70;1645442;86;20126;-70
2022/02/21 04:10:54;;;;;;;;;;;;;;;0.13;100.00;98512.91;1641875;86;20080;-69
2022/02/21 04:13:21;;;;;;;;;;;;;;;0.17;100.00;98509.94;1677847;85;20112;-70
2022/02/21 04:15:55;;;;;;;;;;;;;;;0.22;100.00;98508.03;1677369;85;21102;-70
2022/02/21 04:18:18;;;;;;;;;;;;;;;0.27;100.00;98508.02;1693140;84;20182;-70
2022/02/21 04:20:53;;;;;;;;;;;;;;;0.32;100.00;98508.55;1698073;84;20426;-70
2022/02/21 04:23:21;;;;;;;;;;;;;;;0.36;100.00;98506.11;1700969;84;20090;-71
2022/02/21 04:25:54;;;;;;;;;;;;;;;0.40;100.00;98508.53;1685860;84;20092;-71
2022/02/21 04:28:20;;;;;;;;;;;;;;;0.44;100.00;98502.84;1696539;84;21171;-69
2022/02/21 04:30:52;;;;;;;;;;;;;;;0.47;100.00;98500.95;1705242;82;20182;-67
2022/02/21 04:33:20;;;;;;;;;;;;;;;0.50;100.00;98507.16;1733988;82;20435;-68
2022/02/21 04:35:51;;;;;;;;;;;;;;;0.53;99.92;98497.15;1733668;82;20116;-68
2022/02/21 04:38:19;;;;;;;;;;;;;;;0.57;99.61;98503.08;1733873;83;20084;-69
2022/02/21 04:40:51;;;;;;;;;;;;;;;0.61;99.30;98506.00;1733561;81;21745;-69
2022/02/21 04:43:21;;;;;;;;;;;;;;;0.65;98.83;98509.23;1733598;83;20101;-69
2022/02/21 04:45:54;;;;;;;;;;;;;;;0.69;98.45;98505.97;1734061;83;20112;-71
2022/02/21 04:48:21;;;;;;;;;;;;;;;0.74;98.19;98503.25;1734271;82;20169;-71
2022/02/21 04:50:52;;;;;;;;;;;;;;;0.76;97.77;98495.67;1718560;83;20127;-70
2022/02/21 04:53:23;;;;;;;;;;;;;;;0.77;97.49;98490.54;1721701;83;21171;-71
2022/02/21 04:55:51;;;;;;;;;;;;;;;0.76;97.08;98489.73;1723816;82;20129;-71
2022/02/21 04:58:19;;;;;;;;;;;;;;;0.76;96.80;98491.63;1724060;83;20432;-72
2022/02/21 05:00:50;;;;;;;;;;;;;;;0.74;96.61;98487.04;1723996;83;20209;-70
2022/02/21 05:03:22;;;;;;;;;;;;;;;0.73;96.36;98490.83;1724082;83;20177;-69
2022/02/21 05:05:52;;;;;;;;;;;;;;;0.70;96.19;98488.14;1723888;83;21103;-69
2022/02/21 05:08:22;;;;;;;;;;;;;;;0.68;96.06;98488.95;1723890;82;20136;-69
2022/02/21 05:10:49;;;;;;;;;;;;;;;0.68;96.03;98484.09;1722881;83;20101;-75
2022/02/21 05:13:37;;;;;;;;;;;;;;;0.66;95.95;98487.88;1721195;83;20101;-79
2022/02/21 05:15:50;;;;;;;;;;;;;;;0.67;95.92;98483.29;1719583;83;20085;-69
2022/02/21 05:18:19;;;;;;;;;;;;;;;0.69;95.84;98487.88;1723526;83;21091;-69
2022/02/21 05:20:56;;;;;;;;;;;;;;;0.72;95.69;98487.86;1696778;83;20404;-68
2022/02/21 05:23:22;;;;;;;;;;;;;;;0.74;95.51;98483.80;1723197;82;20116;-70
2022/02/21 05:25:51;;;;;;;;;;;;;;;0.77;95.47;98481.89;1722930;82;20080;-73
2022/02/21 05:28:26;;;;;;;;;;;;;;;0.81;95.34;98474.05;1723922;83;20124;-69
2022/02/21 05:30:50;;;;;;;;;;;;;;;0.84;95.04;98472.94;1724138;83;21178;-77
2022/02/21 05:33:17;;;;;;;;;;;;;;;0.88;94.80;98474.55;1726999;82;20383;-77
2022/02/21 05:35:43;;;;;;;;;;;;;;;0.91;94.55;98468.59;1727305;83;20084;-75
2022/02/21 05:38:12;;;;;;;;;;;;;;;0.92;94.43;98458.84;1727248;83;20544;-73
2022/02/21 05:40:41;;;;;;;;;;;;;;;0.97;94.26;98459.36;1722906;81;20419;-73
2022/02/21 05:43:13;;;;;;;;;;;;;;;0.99;93.70;98455.30;1726242;83;20148;-73
2022/02/21 05:45:37;;;;;;;;;;;;;;;1.02;93.31;98455.28;1726790;83;20084;-74
2022/02/21 05:48:06;;;;;;;;;;;;;;;1.05;93.09;98451.21;1725306;83;20100;-74
2022/02/21 05:50:36;;;;;;;;;;;;;;;1.08;92.51;98460.92;1725408;83;20117;-79
2022/02/21 05:53:05;;;;;;;;;;;;;;;1.11;92.39;98452.80;1712232;84;20150;-75
2022/02/21 05:55:37;;;;;;;;;;;;;;;1.13;92.28;98460.08;1712011;84;21180;-78
2022/02/21 05:58:06;;;;;;;;;;;;;;;1.15;91.94;98451.14;1686946;84;20115;-78
2022/02/21 06:00:32;;;;;;;;;;;;;;;1.18;91.77;98457.31;1712540;84;20441;-77
2022/02/21 06:03:04;;;;;;;;;;;;;;;1.22;91.65;98448.91;1712103;84;20099;-83
2022/02/21 06:05:33;;;;;;;;;;;;;;;1.25;91.25;98447.80;1715716;83;20121;-75
2022/02/21 06:08:05;;;;;;;;;;;;;;;1.28;90.63;98445.88;1725239;83;20157;-76
2022/02/21 06:10:35;;;;;;;;;;;;;;;1.33;90.54;98437.73;1725846;83;20140;-73
2022/02/21 06:13:05;;;;;;;;;;;;;;;1.40;90.05;98437.41;1723015;83;20085;-72
2022/02/21 06:15:36;;;;;;;;;;;;;;;1.47;89.69;98437.09;1727047;82;20249;-69
2022/02/21 06:18:03;;;;;;;;;;;;;;;1.54;89.70;98432.16;1726868;83;20276;-71
2022/02/21 06:20:31;;;;;;;;;;;;;;;1.58;89.37;98426.45;1727294;82;21130;-69
2022/02/21 06:22:59;;;;;;;;;;;;;;;1.62;88.48;98428.84;1726589;83;20109;-70
2022/02/21 06:25:28;;;;;;;;;;;;;;;1.66;88.09;98423.13;1727056;83;20138;-69
2022/02/21 06:27:56;;;;;;;;;;;;;;;1.70;87.60;98422.02;1725066;83;20104;-69
2022/02/21 06:30:24;;;;;;;;;;;;;;;1.73;87.24;98418.19;1727014;83;20140;-69
2022/02/21 06:32:51;;;;;;;;;;;;;;;1.76;86.95;98413.53;1726199;83;23321;-69
2022/02/21 06:35:23;;;;;;;;;;;;;;;1.80;86.64;98414.58;1727018;83;20124;-69
2022/02/21 06:37:54;;;;;;;;;;;;;;;1.86;86.44;98409.92;1726666;83;20420;-69
2022/02/21 06:40:24;;;;;;;;;;;;;;;1.93;86.32;98414.45;1727083;81;20089;-69
2022/02/21 06:42:54;;;;;;;;;;;;;;;1.99;85.39;98405.98;1726865;83;20148;-69
2022/02/21 06:45:27;;;;;;;;;;;;;;;2.08;85.41;98404.81;1723456;83;20121;-68
2022/02/21 06:47:57;;;;;;;;;;;;;;;2.16;84.71;98404.18;1727049;83;20096;-69
2022/02/21 06:50:25;;;;;;;;;;;;;;;2.25;84.04;98404.35;1721221;83;20101;-70
2022/02/21 06:52:58;;;;;;;;;;;;;;;2.35;84.07;98400.69;1712243;83;20161;-70
2022/02/21 06:55:29;;;;;;;;;;;;;;;2.44;82.42;98397.59;1715963;83;20428;-70
2022/02/21 06:57:54;;;;;;;;;;;;;;;2.47;82.48;98399.17;1709701;84;21784;-69
2022/02/21 07:00:22;;;;;;;;;;;;;;;2.53;81.75;98403.43;1710113;84;20075;-69
2022/02/21 07:02:49;;;;;;;;;;;;;;;2.59;81.54;98398.20;1710594;84;20091;-73
2022/02/21 07:05:20;;;;;;;;;;;;;;;2.64;81.04;98401.39;1711328;82;20098;-70
2022/02/21 07:07:48;;;;;;;;;;;;;;;2.69;80.77;98401.88;1717629;83;20117;-73
2022/02/21 07:10:16;;;;;;;;;;;;;;;2.70;80.72;98392.65;1713694;83;22207;-74
2022/02/21 07:12:45;;;;;;;;;;;;;;;2.74;80.39;98393.67;1719829;81;20178;-72
2022/02/21 07:15:11;;;;;;;;;;;;;;;2.76;79.96;98384.16;1727016;82;20180;-74
2022/02/21 07:17:40;;;;;;;;;;;;;;;2.78;79.32;98390.64;1699227;84;20166;-80
2022/02/21 07:20:12;;;;;;;;;;;;;;;2.79;78.72;98388.19;1700682;83;20119;-76
2022/02/21 07:22:43;;;;;;;;;;;;;;;2.81;78.16;98380.02;1704146;83;40245;-76
2022/02/21 07:25:15;;;;;;;;;;;;;;;2.85;78.18;98380.23;1717307;82;20119;-74
2022/02/21 07:27:51;;;;;;;;;;;;;;;2.91;78.17;98379.03;1721695;82;20126;-77
2022/02/21 07:30:26;;;;;;;;;;;;;;;2.97;77.67;98371.08;1665855;84;20149;-83
2022/02/21 07:32:57;;;;;;;;;;;;;;;3.15;76.75;98367.55;1711646;82;20151;-83
2022/02/21 07:35:23;;;;;;;;;;;;;;;3.33;76.60;98368.62;1711717;83;21593;-77
2022/02/21 07:37:49;;;;;;;;;;;;;;;3.45;75.02;98373.58;1716296;83;20427;-73
2022/02/21 07:40:18;;;;;;;;;;;;;;;3.46;74.94;98356.20;1702568;83;20159;-72
2022/02/21 07:42:51;;;;;;;;;;;;;;;3.46;74.62;98362.98;1703698;84;20443;-73
2022/02/21 07:45:21;;;;;;;;;;;;;;;3.44;74.41;98361.11;1707079;83;20200;-83
2022/02/21 07:47:55;;;;;;;;;;;;;;;3.44;74.86;98359.20;1703420;84;21191;-69
2022/02/21 07:50:30;;;;;;;;;;;;;;;3.45;74.34;98360.81;1709994;82;20429;-79
2022/02/21 07:53:02;;;;;;;;;;;;;;;3.48;74.41;98365.62;1717375;83;20084;-81
2022/02/21 07:55:28;;;;;;;;;;;;;;;3.50;74.39;98353.91;1708258;82;20407;-80
2022/02/21 07:58:02;;;;;;;;;;;;;;;3.54;74.14;98364.98;1693828;84;20119;-79
2022/02/21 08:00:30;;;;;;;;;;;;;;;3.55;73.49;98366.03;1693473;84;21096;-78
2022/02/21 08:02:57;;;;;;;;;;;;;;;3.56;73.53;98360.06;1693161;84;20542;-74
2022/02/21 08:05:28;;;;;;;;;;;;;;;3.58;73.15;98360.56;1694130;84;20407;-76
2022/02/21 08:07:58;;;;;;;;;;;;;;;3.60;73.06;98352.93;1693908;84;20092;-79
2022/02/21 08:10:25;;;;;;;;;;;;;;;3.62;72.79;98361.58;1698379;81;20126;-83
2022/02/21 08:12:57;;;;;;;;;;;;;;;3.65;72.53;98352.28;1689958;85;21053;-85
2022/02/21 08:15:23;;;;;;;;;;;;;;;3.70;72.37;98350.58;1707246;84;20481;-81
2022/02/21 08:17:53;;;;;;;;;;;;;;;3.77;72.15;98347.73;1724050;83;20096;-78
2022/02/21 08:20:22;;;;;;;;;;;;;;;3.87;71.82;98351.61;1674650;84;20145;-78
2022/02/21 08:22:52;;;;;;;;;;;;;;;3.95;71.03;98340.05;1718350;83;20145;-77
2022/02/21 08:25:20;;;;;;;;;;;;;;;4.03;71.17;98341.81;1718624;83;21113;-72
2022/02/21 08:28:00;;;;;;;;;;;;;;;4.11;70.76;98339.16;1718210;83;20544;-76
2022/02/21 08:30:20;;;;;;;;;;;;;;;4.22;70.28;98334.33;1714300;83;20437;-73
2022/02/21 08:32:56;;;;;;;;;;;;;;;4.29;70.07;98326.58;1722720;83;20101;-73
2022/02/21 08:35:27;;;;;;;;;;;;;;;4.38;69.71;98319.31;1699202;84;20103;-75
2022/02/21 08:38:04;;;;;;;;;;;;;;;4.48;69.58;98321.02;1680070;85;20087;-73
2022/02/21 08:40:28;;;;;;;;;;;;;;;4.59;68.78;98317.77;1689278;84;20095;-72
2022/02/21 08:43:00;;;;;;;;;;;;;;;4.72;68.54;98307.13;1688615;84;20099;-82
2022/02/21 08:45:29;;;;;;;;;;;;;;;4.79;67.63;98302.07;1689974;85;20084;-90
2022/02/21 08:47:59;;;;;;;;;;;;;;;4.87;68.06;98295.90;1697303;83;20092;-80
2022/02/21 08:50:26;;;;;;;;;;;;;;;4.95;66.44;98288.36;1689305;84;21209;-86
2022/02/21 08:52:54;;;;;;;;;;;;;;;4.99;66.43;98290.71;1692160;84;20152;-77
2022/02/21 08:55:22;;;;;;;;;;;;;;;5.09;66.25;98278.22;1691640;83;20099;-73
2022/02/21 08:58:00;;;;;;;;;;;;;;;5.21;65.23;98268.10;1691710;83;20089;-79
2022/02/21 09:00:24;;;;;;;;;;;;;;;5.30;64.62;98264.88;1728616;82;20164;-75
2022/02/21 09:03:02;;;;;;;;;;;;;;;5.39;64.27;98264.92;1701193;84;20075;-76
2022/02/21 09:05:28;;;;;;;;;;;;;;;5.47;64.06;98261.44;1701142;84;20087;-75
2022/02/21 09:07:57;;;;;;;;;;;;;;;5.49;63.97;98264.09;1701502;83;20087;-74
2022/02/21 09:10:30;;;;;;;;;;;;;;;5.49;64.06;98257.84;1726891;83;20473;-73
2022/02/21 09:12:59;;;;;;;;;;;;;;;5.46;63.18;98255.19;1725439;83;20142;-77
2022/02/21 09:15:29;;;;;;;;;;;;;;;5.40;63.51;98254.28;1727690;83;21748;-73
2022/02/21 09:17:58;;;;;;;;;;;;;;;5.36;63.84;98239.69;1731348;82;20733;-74
2022/02/21 09:20:24;;;;;;;;;;;;;;;5.34;63.85;98235.92;1715466;83;20094;-73
2022/02/21 09:22:53;;;;;;;;;;;;;;;5.37;63.99;98245.38;1708043;84;20426;-71
2022/02/21 09:25:19;;;;;;;;;;;;;;;5.41;64.18;98243.64;1707952;84;20110;-71
2022/02/21 09:27:49;;;;;;;;;;;;;;;5.44;63.82;98252.53;1707736;84;21111;-72
2022/02/21 09:30:18;;;;;;;;;;;;;;;5.43;64.31;98246.29;1717208;82;21762;-74
2022/02/21 09:32:50;;;;;;;;;;;;;;;5.47;64.79;98247.27;1700190;84;20122;-74
2022/02/21 09:35:20;;;;;;;;;;;;;;;5.54;64.51;98246.27;1701119;84;21084;-81
2022/02/21 09:37:53;;;;;;;;;;;;;;;5.58;64.21;98257.33;1744560;82;20163;-80
2022/02/21 09:40:22;;;;;;;;;;;;;;;5.57;64.40;98247.55;1740065;81;21175;-72
2022/02/21 09:42:51;;;;;;;;;;;;;;;5.55;64.93;98254.67;1745163;81;20415;-74
2022/02/21 09:45:20;;;;;;;;;;;;;;;5.58;64.99;98255.97;1725579;83;20084;-75
2022/02/21 09:47:50;;;;;;;;;;;;;;;5.62;65.22;98244.13;1729949;83;20098;-73
2022/02/21 09:50:16;;;;;;;;;;;;;;;5.67;64.65;98249.19;1725928;83;20085;-76
2022/02/21 09:52:43;;;;;;;;;;;;;;;5.64;64.31;98246.54;1729934;83;21271;-73
2022/02/21 09:55:09;;;;;;;;;;;;;;;5.63;64.57;98240.30;1729812;83;20124;-74
2022/02/21 09:57:45;;;;;;;;;;;;;;;5.65;64.44;98233.17;1727071;81;20184;-75
2022/02/21 10:00:14;;;;;;;;;;;;;;;5.69;64.86;98226.54;1737910;81;20156;-76
2022/02/21 10:02:41;;;;;;;;;;;;;;;5.77;64.94;98226.56;1733992;81;20196;-74
2022/02/21 10:05:16;;;;;;;;;;;;;;;5.91;64.62;98221.00;1729315;82;21185;-75
2022/02/21 10:07:46;;;;;;;;;;;;;;;6.03;64.13;98219.82;1710725;83;20489;-74
2022/02/21 10:10:20;;;;;;;;;;;;;;;6.12;64.35;98214.39;1737864;82;20428;-74
2022/02/21 10:12:55;;;;;;;;;;;;;;;6.25;64.00;98208.80;1744678;82;20163;-77
2022/02/21 10:15:29;;;;;;;;;;;;;;;6.34;63.44;98218.34;1738706;82;20149;-75
2022/02/21 10:18:16;;;;;;;;;;;;;;;6.38;63.09;98213.83;1710753;82;20122;-75
2022/02/21 10:20:58;;;;;;;;;;;;;;;6.40;63.57;98208.85;1743306;81;20095;-74
2022/02/21 10:23:31;;;;;;;;;;;;;;;6.40;62.98;98212.14;1714642;83;20085;-75
2022/02/21 10:26:03;;;;;;;;;;;;;;;6.35;63.06;98206.31;1717201;83;20089;-74
2022/02/21 10:28:35;;;;;;;;;;;;;;;6.32;63.46;98201.51;1716265;83;20139;-74
2022/02/21 10:31:24;;;;;;;;;;;;;;;6.31;63.63;98213.53;1711544;83;21113;-73
2022/02/21 10:34:07;;;;;;;;;;;;;;;6.33;63.84;98206.40;1699876;83;20184;-75
2022/02/21 10:36:36;;;;;;;;;;;;;;;6.36;63.01;98215.27;1721307;82;20131;-73
2022/02/21 10:39:08;;;;;;;;;;;;;;;6.40;63.47;98207.48;1716369;83;21934;-77
2022/02/21 10:41:46;;;;;;;;;;;;;;;6.45;63.68;98204.61;1737879;82;20166;-78
2022/02/21 10:44:25;;;;;;;;;;;;;;;6.51;62.63;98212.86;1739663;82;21550;-75
2022/02/21 10:47:16;;;;;;;;;;;;;;;6.51;62.11;98196.51;1737776;82;20127;-74
2022/02/21 10:49:58;;;;;;;;;;;;;;;6.50;62.23;98199.55;1681123;83;20116;-73
2022/02/21 10:52:30;;;;;;;;;;;;;;;6.45;62.37;98184.16;1707918;83;20085;-73
2022/02/21 10:55:05;;;;;;;;;;;;;;;6.43;62.47;98182.88;1716886;83;20085;-73
2022/02/21 10:57:42;;;;;;;;;;;;;;;6.42;62.79;98188.89;1715239;83;20424;-71
2022/02/21 11:00:22;;;;;;;;;;;;;;;6.41;63.01;98188.65;1692121;83;20101;-74
2022/02/21 11:02:52;;;;;;;;;;;;;;;6.42;63.05;98184.80;1716493;83;20113;-73
2022/02/21 11:05:16;;;;;;;;;;;;;;;6.41;63.27;98179.11;1715894;83;21864;-73
2022/02/21 11:07:47;;;;;;;;;;;;;;;6.41;63.23;98184.56;1668233;83;20827;-74
2022/02/21 11:10:15;;;;;;;;;;;;;;;6.40;63.28;98193.06;1697992;83;20156;-74
2022/02/21 11:12:50;;;;;;;;;;;;;;;6.39;63.70;98191.45;1721547;83;20295;-74
2022/02/21 11:15:23;;;;;;;;;;;;;;;6.38;64.00;98189.29;1696362;84;20179;-72
2022/02/21 11:17:49;;;;;;;;;;;;;;;6.38;64.40;98181.67;1695452;84;20115;-72
2022/02/21 11:20:13;;;;;;;;;;;;;;;6.39;64.24;98171.81;1695476;84;20139;-73
2022/02/21 11:22:41;;;;;;;;;;;;;;;6.40;64.64;98165.80;1696526;84;21826;-73
2022/02/21 11:25:14;;;;;;;;;;;;;;;6.42;64.62;98160.27;1696398;84;20116;-72
2022/02/21 11:27:53;;;;;;;;;;;;;;;6.44;64.94;98160.75;1696510;84;20305;-72
2022/02/21 11:30:31;;;;;;;;;;;;;;;6.46;64.75;98154.41;1694943;84;20132;-73
2022/02/21 11:33:11;;;;;;;;;;;;;;;6.52;64.45;98156.41;1695640;84;20151;-73
2022/02/21 11:35:45;;;;;;;;;;;;;;;6.56;64.49;98149.99;1695348;84;21212;-73
2022/02/21 11:38:18;;;;;;;;;;;;;;;6.60;64.07;98156.97;1665508;84;20103;-73
2022/02/21 11:41:04;;;;;;;;;;;;;;;6.65;63.34;98150.55;1667730;84;20478;-73
2022/02/21 11:43:41;;;;;;;;;;;;;;;6.68;63.56;98156.71;1696696;84;20170;-74
2022/02/21 11:46:11;;;;;;;;;;;;;;;6.71;63.39;98150.61;1695195;84;20466;-74
2022/02/21 11:48:50;;;;;;;;;;;;;;;6.78;63.27;98149.55;1667862;84;20179;-74
2022/02/21 11:51:29;;;;;;;;;;;;;;;6.85;63.28;98152.59;1696613;84;20127;-73
2022/02/21 11:54:13;;;;;;;;;;;;;;;6.93;63.00;98144.35;1694995;84;20148;-75
2022/02/21 11:56:54;;;;;;;;;;;;;;;7.00;63.15;98142.48;1667555;84;20191;-74
2022/02/21 11:59:24;;;;;;;;;;;;;;;7.08;62.59;98139.49;1695050;84;20140;-74
2022/02/21 12:02:13;;;;;;;;;;;;;;;7.10;62.29;98139.41;1696489;84;21238;-73
2022/02/21 12:04:49;;;;;;;;;;;;;;;7.11;62.27;98136.91;1669196;84;20116;-73
2022/02/21 12:07:24;;;;;;;;;;;;;;;7.10;61.82;98136.67;1701937;83;20160;-73
2022/02/21 12:10:12;;;;;;;;;;;;;;;7.08;62.23;98143.02;1698744;83;20963;-74
2022/02/21 12:13:03;;;;;;;;;;;;;;;7.05;62.39;98136.85;1714685;83;20445;-74
2022/02/21 12:15:39;;;;;;;;;;;;;;;7.00;62.59;98132.94;1688977;83;20581;-75
2022/02/21 12:18:12;;;;;;;;;;;;;;;6.95;62.53;98127.09;1710788;83;20263;-72
2022/02/21 12:20:47;;;;;;;;;;;;;;;6.92;62.51;98121.52;1695354;84;20144;-73
2022/02/21 12:23:16;;;;;;;;;;;;;;;6.88;62.84;98132.28;1695814;84;21914;-73
2022/02/21 12:26:00;;;;;;;;;;;;;;;6.87;62.89;98121.70;1667691;84;20159;-73
2022/02/21 12:28:32;;;;;;;;;;;;;;;6.86;62.70;98122.82;1696352;84;21185;-73
2022/02/21 12:31:00;;;;;;;;;;;;;;;6.84;62.85;98115.52;1696633;84;20459;-73
2022/02/21 12:33:38;;;;;;;;;;;;;;;6.82;63.32;98107.67;1664621;85;20173;-73
2022/02/21 12:36:07;;;;;;;;;;;;;;;6.81;63.42;98108.80;1684792;85;20155;-72
2022/02/21 12:38:51;;;;;;;;;;;;;;;6.81;63.39;98104.70;1684270;85;20121;-73
2022/02/21 12:41:12;;;;;;;;;;;;;;;6.82;63.57;98115.05;1682249;85;21219;-73
2022/02/21 12:43:51;;;;;;;;;;;;;;;6.82;63.63;98130.85;1683202;85;20383;-73
2022/02/21 12:46:25;;;;;;;;;;;;;;;6.83;63.72;98116.66;1660020;85;20149;-73
2022/02/21 12:48:53;;;;;;;;;;;;;;;6.82;63.67;98117.22;1683244;85;20455;-73
2022/02/21 12:51:27;;;;;;;;;;;;;;;6.82;64.02;98123.23;1683481;85;20113;-74
2022/02/21 12:54:09;;;;;;;;;;;;;;;6.82;64.01;98115.05;1659404;85;20470;-69
2022/02/21 12:56:58;;;;;;;;;;;;;;;6.81;64.06;98120.27;1659337;85;20185;-74
2022/02/21 12:59:38;;;;;;;;;;;;;;;6.78;64.51;98126.37;1684099;85;20492;-74
2022/02/21 13:02:11;;;;;;;;;;;;;;;6.78;64.76;98125.01;1683803;84;20116;-72
2022/02/21 13:04:44;;;;;;;;;;;;;;;6.77;64.57;98113.30;1683791;84;20124;-73
2022/02/21 13:07:14;;;;;;;;;;;;;;;6.79;64.43;98117.87;1692191;83;21178;-74
2022/02/21 13:09:48;;;;;;;;;;;;;;;6.80;64.45;98115.94;1707394;83;20104;-73
2022/02/21 13:12:25;;;;;;;;;;;;;;;6.80;64.67;98111.84;1657339;85;20466;-75
2022/02/21 13:14:57;;;;;;;;;;;;;;;6.79;64.99;98105.59;1675417;85;20177;-74